ENFL/FRO METAR and TAF weather

Enter ICAO airport designator
Station Type Date Time Source
ENFL METAR 2019/02/23 17:50 UTC NOAA

ENFL 231750Z AUTO 19026KT 9999NDV NCD 08/05 Q1027


Station Type Date Time Source
ENFL Decoded METAR 2019/02/23 17:50 UTC NOAA

Floro, Norway (ENFL) 61-35N 005-02E 9M
Feb 23, 2019 - 12:50 PM EST / 2019.02.23 1750 UTC
Wind: from the S (190 degrees) at 30 MPH (26 KT):0
Temperature: 46 F (8 C)
Dew Point: 41 F (5 C)
Relative Humidity: 81%
Pressure (altimeter): 30.33 in. Hg (1027 hPa)
ob: ENFL 231750Z AUTO 19026KT 9999NDV NCD 08/05 Q1027
cycle: 18

Station Type Date Time Source
ENFL TAF 2010/02/05 07:50 UTC NOAA

METAR ENFL 050750Z 16019KT 140V200 9999 FEW015 SCT030 BKN055 03/M03 Q1011


Example: see airport list